sensor_id;sensor_type;location;lat;lon;timestamp;noise_LAeq;noise_LA_min;noise_LA_max;noise_LA01;noise_LA95
72805;Laerm;60920;48.748;19.142;2022-08-03T00:01:01;43.53;29.64;55.67;;
72805;Laerm;60920;48.748;19.142;2022-08-03T00:03:26;41.66;30.68;53.30;;
72805;Laerm;60920;48.748;19.142;2022-08-03T00:05:51;38.66;28.30;49.32;;
72805;Laerm;60920;48.748;19.142;2022-08-03T00:08:17;37.22;28.92;48.02;;
72805;Laerm;60920;48.748;19.142;2022-08-03T00:10:42;39.79;30.48;52.89;;
72805;Laerm;60920;48.748;19.142;2022-08-03T00:13:07;39.34;29.25;52.55;;
72805;Laerm;60920;48.748;19.142;2022-08-03T00:15:33;47.11;29.63;59.43;;
72805;Laerm;60920;48.748;19.142;2022-08-03T00:17:58;40.55;29.38;59.11;;
72805;Laerm;60920;48.748;19.142;2022-08-03T00:20:23;36.63;28.01;47.71;;
72805;Laerm;60920;48.748;19.142;2022-08-03T00:22:49;42.31;29.70;54.66;;
72805;Laerm;60920;48.748;19.142;2022-08-03T00:25:15;37.90;28.74;49.83;;
72805;Laerm;60920;48.748;19.142;2022-08-03T00:27:40;34.79;28.77;44.81;;
72805;Laerm;60920;48.748;19.142;2022-08-03T00:30:06;43.26;30.87;58.92;;
72805;Laerm;60920;48.748;19.142;2022-08-03T00:32:32;34.54;29.13;47.16;;
72805;Laerm;60920;48.748;19.142;2022-08-03T00:34:57;39.90;30.82;50.14;;
72805;Laerm;60920;48.748;19.142;2022-08-03T00:37:22;41.50;30.36;52.64;;
72805;Laerm;60920;48.748;19.142;2022-08-03T00:39:48;42.04;30.45;52.48;;
72805;Laerm;60920;48.748;19.142;2022-08-03T00:42:13;40.18;28.61;53.27;;
72805;Laerm;60920;48.748;19.142;2022-08-03T00:44:39;45.03;31.16;61.79;;
72805;Laerm;60920;48.748;19.142;2022-08-03T00:47:05;32.77;28.56;48.30;;
72805;Laerm;60920;48.748;19.142;2022-08-03T00:49:30;37.35;28.49;49.79;;
72805;Laerm;60920;48.748;19.142;2022-08-03T00:51:56;38.94;28.97;50.96;;
72805;Laerm;60920;48.748;19.142;2022-08-03T00:54:21;40.45;30.28;57.02;;
72805;Laerm;60920;48.748;19.142;2022-08-03T00:56:47;40.14;28.59;53.00;;
72805;Laerm;60920;48.748;19.142;2022-08-03T00:59:13;34.90;28.48;50.91;;
72805;Laerm;60920;48.748;19.142;2022-08-03T01:01:39;40.83;29.01;53.47;;
72805;Laerm;60920;48.748;19.142;2022-08-03T01:04:04;38.46;28.41;50.99;;
72805;Laerm;60920;48.748;19.142;2022-08-03T01:08:58;34.84;28.35;52.02;;
72805;Laerm;60920;48.748;19.142;2022-08-03T01:16:31;43.62;29.96;56.98;;
72805;Laerm;60920;48.748;19.142;2022-08-03T01:19:02;43.92;31.35;61.81;;
72805;Laerm;60920;48.748;19.142;2022-08-03T01:21:39;42.90;29.22;53.95;;
72805;Laerm;60920;48.748;19.142;2022-08-03T01:26:45;45.37;33.66;58.48;;
72805;Laerm;60920;48.748;19.142;2022-08-03T01:31:46;37.85;29.72;50.36;;
72805;Laerm;60920;48.748;19.142;2022-08-03T01:34:14;38.27;29.58;50.44;;
72805;Laerm;60920;48.748;19.142;2022-08-03T01:36:48;43.40;30.53;57.17;;
72805;Laerm;60920;48.748;19.142;2022-08-03T01:39:15;35.80;29.29;47.37;;
72805;Laerm;60920;48.748;19.142;2022-08-03T01:41:43;30.23;28.05;41.15;;
72805;Laerm;60920;48.748;19.142;2022-08-03T01:44:10;42.51;30.00;55.74;;
72805;Laerm;60920;48.748;19.142;2022-08-03T01:46:36;41.71;30.43;51.47;;
72805;Laerm;60920;48.748;19.142;2022-08-03T01:49:02;40.64;30.37;50.57;;
72805;Laerm;60920;48.748;19.142;2022-08-03T01:51:30;38.69;30.09;48.80;;
72805;Laerm;60920;48.748;19.142;2022-08-03T01:53:56;38.06;30.96;49.61;;
72805;Laerm;60920;48.748;19.142;2022-08-03T01:56:23;40.13;29.14;52.29;;
72805;Laerm;60920;48.748;19.142;2022-08-03T01:58:49;40.27;29.45;49.92;;
72805;Laerm;60920;48.748;19.142;2022-08-03T02:01:15;41.18;32.28;51.96;;
72805;Laerm;60920;48.748;19.142;2022-08-03T02:03:41;40.49;32.88;48.37;;
72805;Laerm;60920;48.748;19.142;2022-08-03T02:06:11;39.38;30.39;50.98;;
72805;Laerm;60920;48.748;19.142;2022-08-03T02:08:40;41.57;30.19;54.00;;
72805;Laerm;60920;48.748;19.142;2022-08-03T02:11:07;37.17;28.86;47.41;;
72805;Laerm;60920;48.748;19.142;2022-08-03T02:13:33;42.54;29.41;51.03;;
72805;Laerm;60920;48.748;19.142;2022-08-03T02:15:58;39.48;30.45;50.48;;
72805;Laerm;60920;48.748;19.142;2022-08-03T02:18:25;44.59;33.01;56.51;;
72805;Laerm;60920;48.748;19.142;2022-08-03T02:20:51;42.23;31.99;55.92;;
72805;Laerm;60920;48.748;19.142;2022-08-03T02:23:17;43.16;31.39;52.87;;
72805;Laerm;60920;48.748;19.142;2022-08-03T02:25:53;45.92;31.63;56.74;;
72805;Laerm;60920;48.748;19.142;2022-08-03T02:28:23;42.57;31.08;56.86;;
72805;Laerm;60920;48.748;19.142;2022-08-03T02:30:51;44.68;34.62;52.80;;
72805;Laerm;60920;48.748;19.142;2022-08-03T02:33:18;45.07;35.99;54.10;;
72805;Laerm;60920;48.748;19.142;2022-08-03T02:35:46;42.69;30.58;53.19;;
72805;Laerm;60920;48.748;19.142;2022-08-03T02:38:13;42.60;30.16;51.83;;
72805;Laerm;60920;48.748;19.142;2022-08-03T02:40:39;40.93;31.05;53.32;;
72805;Laerm;60920;48.748;19.142;2022-08-03T02:43:06;46.46;36.00;55.27;;
72805;Laerm;60920;48.748;19.142;2022-08-03T02:45:34;42.56;33.75;49.92;;
72805;Laerm;60920;48.748;19.142;2022-08-03T02:48:01;44.06;32.46;57.66;;
72805;Laerm;60920;48.748;19.142;2022-08-03T02:50:28;42.91;33.42;52.66;;
72805;Laerm;60920;48.748;19.142;2022-08-03T02:52:54;43.69;36.00;51.24;;
72805;Laerm;60920;48.748;19.142;2022-08-03T02:55:21;46.72;37.74;56.47;;
72805;Laerm;60920;48.748;19.142;2022-08-03T02:57:47;45.96;35.26;58.12;;
72805;Laerm;60920;48.748;19.142;2022-08-03T03:00:14;46.04;36.72;56.80;;
72805;Laerm;60920;48.748;19.142;2022-08-03T03:02:40;43.74;33.67;56.17;;
72805;Laerm;60920;48.748;19.142;2022-08-03T03:05:06;45.91;36.47;54.23;;
72805;Laerm;60920;48.748;19.142;2022-08-03T03:07:32;46.27;37.52;53.64;;
72805;Laerm;60920;48.748;19.142;2022-08-03T03:09:57;47.98;41.08;56.01;;
72805;Laerm;60920;48.748;19.142;2022-08-03T03:12:23;46.15;38.11;55.78;;
72805;Laerm;60920;48.748;19.142;2022-08-03T03:14:50;47.88;38.87;58.35;;
72805;Laerm;60920;48.748;19.142;2022-08-03T03:17:15;46.41;41.40;52.73;;
72805;Laerm;60920;48.748;19.142;2022-08-03T03:19:40;48.17;42.88;57.61;;
72805;Laerm;60920;48.748;19.142;2022-08-03T03:22:07;48.05;40.05;54.29;;
72805;Laerm;60920;48.748;19.142;2022-08-03T03:24:33;47.58;39.40;57.62;;
72805;Laerm;60920;48.748;19.142;2022-08-03T03:26:58;50.07;41.48;59.30;;
72805;Laerm;60920;48.748;19.142;2022-08-03T03:29:24;48.82;42.79;55.27;;
72805;Laerm;60920;48.748;19.142;2022-08-03T03:31:49;49.45;41.71;56.00;;
72805;Laerm;60920;48.748;19.142;2022-08-03T03:34:15;49.61;40.66;57.94;;
72805;Laerm;60920;48.748;19.142;2022-08-03T03:36:40;49.73;41.02;60.35;;
72805;Laerm;60920;48.748;19.142;2022-08-03T03:39:06;50.54;43.10;59.57;;
72805;Laerm;60920;48.748;19.142;2022-08-03T03:41:31;49.28;43.25;59.94;;
72805;Laerm;60920;48.748;19.142;2022-08-03T03:43:57;48.68;42.97;55.25;;
72805;Laerm;60920;48.748;19.142;2022-08-03T03:46:22;49.86;44.49;55.78;;
72805;Laerm;60920;48.748;19.142;2022-08-03T03:48:47;49.81;44.20;56.56;;
72805;Laerm;60920;48.748;19.142;2022-08-03T03:51:13;50.39;45.71;58.90;;
72805;Laerm;60920;48.748;19.142;2022-08-03T03:53:39;49.28;41.98;54.95;;
72805;Laerm;60920;48.748;19.142;2022-08-03T03:56:04;50.14;42.02;57.45;;
72805;Laerm;60920;48.748;19.142;2022-08-03T03:58:30;49.32;40.58;55.59;;
72805;Laerm;60920;48.748;19.142;2022-08-03T04:00:56;49.64;39.21;58.59;;
72805;Laerm;60920;48.748;19.142;2022-08-03T04:03:21;49.65;42.38;56.85;;
72805;Laerm;60920;48.748;19.142;2022-08-03T04:05:47;50.15;40.40;58.08;;
72805;Laerm;60920;48.748;19.142;2022-08-03T04:08:30;50.20;43.68;60.23;;
72805;Laerm;60920;48.748;19.142;2022-08-03T04:13:48;52.83;45.83;74.16;;
72805;Laerm;60920;48.748;19.142;2022-08-03T04:16:15;50.31;44.59;56.65;;
72805;Laerm;60920;48.748;19.142;2022-08-03T04:18:43;49.88;43.98;58.87;;
72805;Laerm;60920;48.748;19.142;2022-08-03T04:21:12;49.01;42.95;55.35;;
72805;Laerm;60920;48.748;19.142;2022-08-03T04:23:40;50.86;44.96;56.82;;
72805;Laerm;60920;48.748;19.142;2022-08-03T04:26:07;52.08;45.80;59.89;;
72805;Laerm;60920;48.748;19.142;2022-08-03T04:28:34;52.79;45.72;59.74;;
72805;Laerm;60920;48.748;19.142;2022-08-03T04:31:00;52.12;45.65;61.54;;
72805;Laerm;60920;48.748;19.142;2022-08-03T04:33:27;51.33;44.39;59.17;;
72805;Laerm;60920;48.748;19.142;2022-08-03T04:35:53;52.34;44.72;60.03;;
72805;Laerm;60920;48.748;19.142;2022-08-03T04:38:22;51.31;46.22;58.44;;
72805;Laerm;60920;48.748;19.142;2022-08-03T04:40:48;52.33;46.89;58.10;;
72805;Laerm;60920;48.748;19.142;2022-08-03T04:43:14;52.43;45.85;56.41;;
72805;Laerm;60920;48.748;19.142;2022-08-03T04:45:40;53.23;47.53;62.23;;
72805;Laerm;60920;48.748;19.142;2022-08-03T04:48:07;51.87;46.00;61.76;;
72805;Laerm;60920;48.748;19.142;2022-08-03T04:50:32;52.18;47.03;58.33;;
72805;Laerm;60920;48.748;19.142;2022-08-03T04:52:58;52.09;46.19;57.81;;
72805;Laerm;60920;48.748;19.142;2022-08-03T04:55:30;51.28;47.07;56.97;;
72805;Laerm;60920;48.748;19.142;2022-08-03T04:57:56;53.97;48.25;64.19;;
72805;Laerm;60920;48.748;19.142;2022-08-03T05:00:21;52.33;44.98;60.68;;
72805;Laerm;60920;48.748;19.142;2022-08-03T05:02:47;51.55;46.39;56.31;;
72805;Laerm;60920;48.748;19.142;2022-08-03T05:05:12;51.04;46.63;56.89;;
72805;Laerm;60920;48.748;19.142;2022-08-03T05:07:39;51.48;43.77;60.19;;
72805;Laerm;60920;48.748;19.142;2022-08-03T05:10:05;52.76;46.76;60.48;;
72805;Laerm;60920;48.748;19.142;2022-08-03T05:12:31;52.21;43.96;60.34;;
72805;Laerm;60920;48.748;19.142;2022-08-03T05:14:56;51.76;45.68;58.95;;
72805;Laerm;60920;48.748;19.142;2022-08-03T05:17:21;53.17;48.88;63.00;;
72805;Laerm;60920;48.748;19.142;2022-08-03T05:19:47;52.63;48.26;62.42;;
72805;Laerm;60920;48.748;19.142;2022-08-03T05:22:12;52.14;47.54;57.54;;
72805;Laerm;60920;48.748;19.142;2022-08-03T05:24:37;50.89;46.49;55.77;;
72805;Laerm;60920;48.748;19.142;2022-08-03T05:27:03;52.72;47.19;58.13;;
72805;Laerm;60920;48.748;19.142;2022-08-03T05:29:28;53.25;47.61;61.64;;
72805;Laerm;60920;48.748;19.142;2022-08-03T05:31:53;51.50;46.35;58.73;;
72805;Laerm;60920;48.748;19.142;2022-08-03T05:34:19;52.76;47.55;64.37;;
72805;Laerm;60920;48.748;19.142;2022-08-03T05:36:44;54.13;45.40;71.92;;
72805;Laerm;60920;48.748;19.142;2022-08-03T05:39:10;52.11;47.36;61.50;;
72805;Laerm;60920;48.748;19.142;2022-08-03T05:41:35;52.27;43.75;65.24;;
72805;Laerm;60920;48.748;19.142;2022-08-03T05:44:00;52.33;48.20;57.85;;
72805;Laerm;60920;48.748;19.142;2022-08-03T05:46:26;52.17;45.50;61.21;;
72805;Laerm;60920;48.748;19.142;2022-08-03T05:48:52;50.99;46.05;55.90;;
72805;Laerm;60920;48.748;19.142;2022-08-03T05:51:17;50.59;43.45;55.72;;
72805;Laerm;60920;48.748;19.142;2022-08-03T05:53:43;51.93;46.59;60.02;;
72805;Laerm;60920;48.748;19.142;2022-08-03T05:56:08;51.76;47.41;57.58;;
72805;Laerm;60920;48.748;19.142;2022-08-03T05:58:34;51.50;45.22;59.24;;
72805;Laerm;60920;48.748;19.142;2022-08-03T06:00:59;51.07;46.47;59.76;;
72805;Laerm;60920;48.748;19.142;2022-08-03T06:03:25;51.83;46.11;59.96;;
72805;Laerm;60920;48.748;19.142;2022-08-03T06:05:50;50.48;44.68;56.13;;
72805;Laerm;60920;48.748;19.142;2022-08-03T06:08:15;52.15;45.83;63.34;;
72805;Laerm;60920;48.748;19.142;2022-08-03T06:10:40;51.57;45.91;61.31;;
72805;Laerm;60920;48.748;19.142;2022-08-03T06:13:06;51.53;46.26;60.07;;
72805;Laerm;60920;48.748;19.142;2022-08-03T06:15:31;53.16;46.44;61.82;;
72805;Laerm;60920;48.748;19.142;2022-08-03T06:17:57;53.69;45.71;63.15;;
72805;Laerm;60920;48.748;19.142;2022-08-03T06:20:23;52.11;44.94;61.62;;
72805;Laerm;60920;48.748;19.142;2022-08-03T06:22:48;50.94;45.64;61.92;;
72805;Laerm;60920;48.748;19.142;2022-08-03T06:25:13;50.72;45.96;56.78;;
72805;Laerm;60920;48.748;19.142;2022-08-03T06:27:40;52.17;46.18;67.54;;
72805;Laerm;60920;48.748;19.142;2022-08-03T06:30:06;52.31;47.72;62.22;;
72805;Laerm;60920;48.748;19.142;2022-08-03T06:32:38;52.10;46.29;60.66;;
72805;Laerm;60920;48.748;19.142;2022-08-03T06:35:04;50.98;45.25;59.23;;
72805;Laerm;60920;48.748;19.142;2022-08-03T06:37:30;52.20;46.27;59.20;;
72805;Laerm;60920;48.748;19.142;2022-08-03T06:39:55;51.52;44.56;59.56;;
72805;Laerm;60920;48.748;19.142;2022-08-03T06:42:20;51.43;46.87;65.65;;
72805;Laerm;60920;48.748;19.142;2022-08-03T06:44:46;51.76;44.65;63.10;;
72805;Laerm;60920;48.748;19.142;2022-08-03T06:47:11;51.55;46.01;57.32;;
72805;Laerm;60920;48.748;19.142;2022-08-03T06:49:36;51.20;45.40;56.30;;
72805;Laerm;60920;48.748;19.142;2022-08-03T06:52:02;52.02;46.85;63.06;;
72805;Laerm;60920;48.748;19.142;2022-08-03T06:54:27;50.83;46.45;56.89;;
72805;Laerm;60920;48.748;19.142;2022-08-03T06:56:53;50.75;43.16;56.90;;
72805;Laerm;60920;48.748;19.142;2022-08-03T06:59:18;53.15;46.56;62.01;;
72805;Laerm;60920;48.748;19.142;2022-08-03T07:01:46;51.86;43.38;61.66;;
72805;Laerm;60920;48.748;19.142;2022-08-03T07:04:12;51.03;45.06;62.65;;
72805;Laerm;60920;48.748;19.142;2022-08-03T07:06:37;50.24;45.07;58.26;;
72805;Laerm;60920;48.748;19.142;2022-08-03T07:09:03;51.85;47.56;57.42;;
72805;Laerm;60920;48.748;19.142;2022-08-03T07:11:28;54.11;46.51;67.54;;
72805;Laerm;60920;48.748;19.142;2022-08-03T07:13:53;54.71;47.30;61.87;;
72805;Laerm;60920;48.748;19.142;2022-08-03T07:16:19;51.87;47.40;57.62;;
72805;Laerm;60920;48.748;19.142;2022-08-03T07:18:44;54.53;47.68;67.23;;
72805;Laerm;60920;48.748;19.142;2022-08-03T07:21:10;57.59;46.98;67.07;;
72805;Laerm;60920;48.748;19.142;2022-08-03T07:23:36;51.08;46.25;57.00;;
72805;Laerm;60920;48.748;19.142;2022-08-03T07:26:02;50.35;45.28;59.23;;
72805;Laerm;60920;48.748;19.142;2022-08-03T07:28:27;51.62;46.45;60.75;;
72805;Laerm;60920;48.748;19.142;2022-08-03T07:30:52;54.87;47.74;59.79;;
72805;Laerm;60920;48.748;19.142;2022-08-03T07:33:17;52.26;46.12;61.25;;
72805;Laerm;60920;48.748;19.142;2022-08-03T07:35:43;51.93;44.94;66.67;;
72805;Laerm;60920;48.748;19.142;2022-08-03T07:38:08;51.29;45.57;59.16;;
72805;Laerm;60920;48.748;19.142;2022-08-03T07:40:33;50.88;44.51;64.36;;
72805;Laerm;60920;48.748;19.142;2022-08-03T07:42:59;50.62;45.63;60.97;;
72805;Laerm;60920;48.748;19.142;2022-08-03T07:45:26;53.74;46.31;60.97;;
72805;Laerm;60920;48.748;19.142;2022-08-03T07:47:52;53.38;46.92;64.36;;
72805;Laerm;60920;48.748;19.142;2022-08-03T07:50:17;52.60;46.89;61.50;;
72805;Laerm;60920;48.748;19.142;2022-08-03T07:52:43;53.16;45.61;60.45;;
72805;Laerm;60920;48.748;19.142;2022-08-03T07:55:16;52.57;47.11;61.30;;
72805;Laerm;60920;48.748;19.142;2022-08-03T07:57:42;52.78;48.73;57.43;;
72805;Laerm;60920;48.748;19.142;2022-08-03T08:00:13;52.23;46.95;59.78;;
72805;Laerm;60920;48.748;19.142;2022-08-03T08:02:39;52.56;48.04;60.42;;
72805;Laerm;60920;48.748;19.142;2022-08-03T08:05:04;50.40;44.46;63.64;;
72805;Laerm;60920;48.748;19.142;2022-08-03T08:07:29;51.13;43.84;60.51;;
72805;Laerm;60920;48.748;19.142;2022-08-03T08:09:55;51.88;45.44;60.33;;
72805;Laerm;60920;48.748;19.142;2022-08-03T08:12:21;51.82;44.11;66.60;;
72805;Laerm;60920;48.748;19.142;2022-08-03T08:14:46;48.92;43.50;58.22;;
72805;Laerm;60920;48.748;19.142;2022-08-03T08:17:12;49.60;43.67;57.62;;
72805;Laerm;60920;48.748;19.142;2022-08-03T08:19:38;50.53;44.44;57.79;;
72805;Laerm;60920;48.748;19.142;2022-08-03T08:22:03;51.55;46.84;59.33;;
72805;Laerm;60920;48.748;19.142;2022-08-03T08:24:28;50.27;44.46;58.33;;
72805;Laerm;60920;48.748;19.142;2022-08-03T08:26:58;51.98;46.85;59.94;;
72805;Laerm;60920;48.748;19.142;2022-08-03T08:29:24;51.29;46.85;60.32;;
72805;Laerm;60920;48.748;19.142;2022-08-03T08:31:49;53.73;46.68;67.12;;
72805;Laerm;60920;48.748;19.142;2022-08-03T08:34:15;49.93;44.88;56.18;;
72805;Laerm;60920;48.748;19.142;2022-08-03T08:36:40;51.56;45.57;58.28;;
72805;Laerm;60920;48.748;19.142;2022-08-03T08:39:05;51.74;46.16;57.14;;
72805;Laerm;60920;48.748;19.142;2022-08-03T08:41:31;50.82;43.93;56.14;;
72805;Laerm;60920;48.748;19.142;2022-08-03T08:43:59;51.20;45.62;58.58;;
72805;Laerm;60920;48.748;19.142;2022-08-03T08:46:25;51.09;45.55;63.03;;
72805;Laerm;60920;48.748;19.142;2022-08-03T08:48:51;51.03;44.54;60.76;;
72805;Laerm;60920;48.748;19.142;2022-08-03T08:51:18;50.23;44.75;58.31;;
72805;Laerm;60920;48.748;19.142;2022-08-03T08:53:45;51.72;44.98;61.36;;
72805;Laerm;60920;48.748;19.142;2022-08-03T08:56:12;51.43;44.67;58.66;;
72805;Laerm;60920;48.748;19.142;2022-08-03T08:58:40;53.75;45.60;66.97;;
72805;Laerm;60920;48.748;19.142;2022-08-03T09:01:08;50.69;46.34;54.97;;
72805;Laerm;60920;48.748;19.142;2022-08-03T09:03:33;51.76;46.91;61.29;;
72805;Laerm;60920;48.748;19.142;2022-08-03T09:05:59;52.22;46.23;63.51;;
72805;Laerm;60920;48.748;19.142;2022-08-03T09:08:25;51.64;45.22;60.52;;
72805;Laerm;60920;48.748;19.142;2022-08-03T09:10:50;51.77;44.23;60.85;;
72805;Laerm;60920;48.748;19.142;2022-08-03T09:13:15;50.46;45.50;59.75;;
72805;Laerm;60920;48.748;19.142;2022-08-03T09:15:42;50.86;43.85;59.51;;
72805;Laerm;60920;48.748;19.142;2022-08-03T09:18:08;51.02;45.94;58.46;;
72805;Laerm;60920;48.748;19.142;2022-08-03T09:20:34;50.77;45.40;56.22;;
72805;Laerm;60920;48.748;19.142;2022-08-03T09:23:04;52.76;43.99;67.02;;
72805;Laerm;60920;48.748;19.142;2022-08-03T09:28:08;52.47;46.22;60.54;;
72805;Laerm;60920;48.748;19.142;2022-08-03T09:30:34;52.35;46.50;62.56;;
72805;Laerm;60920;48.748;19.142;2022-08-03T09:33:11;50.36;45.33;57.56;;
72805;Laerm;60920;48.748;19.142;2022-08-03T09:35:43;52.26;45.87;63.61;;
72805;Laerm;60920;48.748;19.142;2022-08-03T09:38:09;54.60;47.77;68.48;;
72805;Laerm;60920;48.748;19.142;2022-08-03T09:40:35;56.83;47.66;69.94;;
72805;Laerm;60920;48.748;19.142;2022-08-03T09:43:00;51.41;45.70;58.14;;
72805;Laerm;60920;48.748;19.142;2022-08-03T09:45:26;58.79;47.73;80.22;;
72805;Laerm;60920;48.748;19.142;2022-08-03T09:47:51;57.42;46.71;72.89;;
72805;Laerm;60920;48.748;19.142;2022-08-03T09:50:17;50.50;45.78;56.14;;
72805;Laerm;60920;48.748;19.142;2022-08-03T09:52:42;49.37;44.72;58.25;;
72805;Laerm;60920;48.748;19.142;2022-08-03T09:55:12;50.83;45.24;57.90;;
72805;Laerm;60920;48.748;19.142;2022-08-03T09:57:38;51.03;46.17;56.37;;
72805;Laerm;60920;48.748;19.142;2022-08-03T10:02:35;51.32;45.13;65.00;;
72805;Laerm;60920;48.748;19.142;2022-08-03T10:05:01;49.96;42.43;57.17;;
72805;Laerm;60920;48.748;19.142;2022-08-03T10:07:27;51.10;44.28;60.36;;
72805;Laerm;60920;48.748;19.142;2022-08-03T10:09:54;51.17;45.81;61.50;;
72805;Laerm;60920;48.748;19.142;2022-08-03T10:12:20;50.81;44.21;62.89;;
72805;Laerm;60920;48.748;19.142;2022-08-03T10:14:46;51.59;46.39;60.15;;
72805;Laerm;60920;48.748;19.142;2022-08-03T10:17:11;52.54;46.12;66.16;;
72805;Laerm;60920;48.748;19.142;2022-08-03T10:19:37;51.63;46.28;57.95;;
72805;Laerm;60920;48.748;19.142;2022-08-03T10:22:03;52.10;46.85;62.60;;
72805;Laerm;60920;48.748;19.142;2022-08-03T10:24:33;51.33;46.60;61.75;;
72805;Laerm;60920;48.748;19.142;2022-08-03T10:27:03;51.29;45.69;60.19;;
72805;Laerm;60920;48.748;19.142;2022-08-03T10:29:32;51.05;45.98;59.77;;
72805;Laerm;60920;48.748;19.142;2022-08-03T10:31:58;52.42;46.83;63.15;;
72805;Laerm;60920;48.748;19.142;2022-08-03T10:34:34;51.68;45.82;60.25;;
72805;Laerm;60920;48.748;19.142;2022-08-03T10:37:04;52.36;47.43;60.11;;
72805;Laerm;60920;48.748;19.142;2022-08-03T10:39:32;49.47;43.13;56.82;;
72805;Laerm;60920;48.748;19.142;2022-08-03T10:41:57;50.22;42.33;58.06;;
72805;Laerm;60920;48.748;19.142;2022-08-03T10:44:23;52.23;46.56;60.59;;
72805;Laerm;60920;48.748;19.142;2022-08-03T10:46:50;52.56;46.66;62.91;;
72805;Laerm;60920;48.748;19.142;2022-08-03T10:49:18;50.51;44.91;61.21;;
72805;Laerm;60920;48.748;19.142;2022-08-03T10:51:44;52.38;47.50;58.43;;
72805;Laerm;60920;48.748;19.142;2022-08-03T10:54:53;53.14;45.91;64.90;;
72805;Laerm;60920;48.748;19.142;2022-08-03T10:56:59;51.85;46.43;56.06;;
72805;Laerm;60920;48.748;19.142;2022-08-03T11:02:12;51.24;44.39;58.22;;
72805;Laerm;60920;48.748;19.142;2022-08-03T11:04:38;50.94;45.37;60.18;;
72805;Laerm;60920;48.748;19.142;2022-08-03T11:09:43;49.33;43.43;57.15;;
72805;Laerm;60920;48.748;19.142;2022-08-03T11:12:28;50.50;44.94;59.04;;
72805;Laerm;60920;48.748;19.142;2022-08-03T11:14:54;51.66;44.60;60.65;;
72805;Laerm;60920;48.748;19.142;2022-08-03T11:17:20;50.11;44.38;59.51;;
72805;Laerm;60920;48.748;19.142;2022-08-03T11:19:50;50.33;45.05;56.70;;
72805;Laerm;60920;48.748;19.142;2022-08-03T11:22:16;50.62;44.30;59.50;;
72805;Laerm;60920;48.748;19.142;2022-08-03T11:35:17;52.31;45.33;64.82;;
72805;Laerm;60920;48.748;19.142;2022-08-03T11:40:33;50.63;45.24;57.90;;
72805;Laerm;60920;48.748;19.142;2022-08-03T11:42:59;50.59;45.20;55.91;;
72805;Laerm;60920;48.748;19.142;2022-08-03T11:45:25;51.99;46.31;62.13;;
72805;Laerm;60920;48.748;19.142;2022-08-03T11:47:52;51.63;46.88;57.69;;
72805;Laerm;60920;48.748;19.142;2022-08-03T11:50:18;52.18;44.84;58.61;;
72805;Laerm;60920;48.748;19.142;2022-08-03T11:52:43;51.29;46.64;61.02;;
72805;Laerm;60920;48.748;19.142;2022-08-03T11:55:10;50.68;44.26;57.63;;
72805;Laerm;60920;48.748;19.142;2022-08-03T11:57:35;50.13;43.20;59.40;;
72805;Laerm;60920;48.748;19.142;2022-08-03T12:00:01;51.28;44.59;61.51;;
72805;Laerm;60920;48.748;19.142;2022-08-03T12:02:27;49.47;44.07;60.38;;
72805;Laerm;60920;48.748;19.142;2022-08-03T12:04:52;51.80;43.58;58.54;;
72805;Laerm;60920;48.748;19.142;2022-08-03T12:07:18;52.63;46.77;61.96;;
72805;Laerm;60920;48.748;19.142;2022-08-03T12:10:04;50.62;45.33;62.22;;
72805;Laerm;60920;48.748;19.142;2022-08-03T12:12:33;50.56;45.34;58.25;;
72805;Laerm;60920;48.748;19.142;2022-08-03T12:14:59;51.34;46.87;59.78;;
72805;Laerm;60920;48.748;19.142;2022-08-03T12:17:34;53.80;48.93;61.51;;
72805;Laerm;60920;48.748;19.142;2022-08-03T12:20:00;53.54;48.71;69.11;;
72805;Laerm;60920;48.748;19.142;2022-08-03T12:22:30;52.48;47.00;60.95;;
72805;Laerm;60920;48.748;19.142;2022-08-03T12:24:55;52.23;48.35;59.84;;
72805;Laerm;60920;48.748;19.142;2022-08-03T12:27:24;51.06;45.31;58.27;;
72805;Laerm;60920;48.748;19.142;2022-08-03T12:29:50;51.00;45.39;59.99;;
72805;Laerm;60920;48.748;19.142;2022-08-03T12:32:17;51.14;45.45;58.79;;
72805;Laerm;60920;48.748;19.142;2022-08-03T12:34:48;50.50;45.58;55.16;;
72805;Laerm;60920;48.748;19.142;2022-08-03T12:37:17;51.14;45.93;61.74;;
72805;Laerm;60920;48.748;19.142;2022-08-03T12:39:48;51.88;47.45;60.43;;
72805;Laerm;60920;48.748;19.142;2022-08-03T12:42:13;56.22;47.94;68.80;;
72805;Laerm;60920;48.748;19.142;2022-08-03T12:44:39;51.94;45.19;57.57;;
72805;Laerm;60920;48.748;19.142;2022-08-03T12:47:05;50.69;45.25;58.08;;
72805;Laerm;60920;48.748;19.142;2022-08-03T12:49:47;50.81;46.70;59.19;;
72805;Laerm;60920;48.748;19.142;2022-08-03T12:52:13;51.41;46.36;61.42;;
72805;Laerm;60920;48.748;19.142;2022-08-03T12:54:38;53.87;47.64;68.42;;
72805;Laerm;60920;48.748;19.142;2022-08-03T12:57:08;51.31;47.17;57.15;;
72805;Laerm;60920;48.748;19.142;2022-08-03T12:59:35;55.82;47.52;72.38;;
72805;Laerm;60920;48.748;19.142;2022-08-03T13:02:02;54.01;46.20;60.96;;
72805;Laerm;60920;48.748;19.142;2022-08-03T13:04:29;53.24;47.39;60.79;;
72805;Laerm;60920;48.748;19.142;2022-08-03T13:07:04;54.12;47.70;67.77;;
72805;Laerm;60920;48.748;19.142;2022-08-03T13:09:39;49.80;45.41;54.13;;
72805;Laerm;60920;48.748;19.142;2022-08-03T13:14:35;52.13;46.43;59.88;;
72805;Laerm;60920;48.748;19.142;2022-08-03T13:17:01;53.42;49.24;60.74;;
72805;Laerm;60920;48.748;19.142;2022-08-03T13:19:26;51.75;47.38;61.38;;
72805;Laerm;60920;48.748;19.142;2022-08-03T13:21:51;52.26;47.71;59.12;;
72805;Laerm;60920;48.748;19.142;2022-08-03T13:24:17;52.35;47.90;57.70;;
72805;Laerm;60920;48.748;19.142;2022-08-03T13:26:43;50.52;44.93;55.71;;
72805;Laerm;60920;48.748;19.142;2022-08-03T13:29:08;52.05;45.12;59.70;;
72805;Laerm;60920;48.748;19.142;2022-08-03T13:31:33;51.44;47.74;57.70;;
72805;Laerm;60920;48.748;19.142;2022-08-03T13:33:59;52.59;47.83;62.81;;
72805;Laerm;60920;48.748;19.142;2022-08-03T13:36:24;52.93;47.12;66.12;;
72805;Laerm;60920;48.748;19.142;2022-08-03T13:38:50;51.96;47.98;58.18;;
72805;Laerm;60920;48.748;19.142;2022-08-03T13:41:15;52.00;46.78;60.30;;
72805;Laerm;60920;48.748;19.142;2022-08-03T13:43:41;53.17;47.96;64.02;;
72805;Laerm;60920;48.748;19.142;2022-08-03T13:46:06;53.84;45.20;71.81;;
72805;Laerm;60920;48.748;19.142;2022-08-03T13:48:31;56.40;48.06;67.53;;
72805;Laerm;60920;48.748;19.142;2022-08-03T13:50:56;52.40;45.92;60.33;;
72805;Laerm;60920;48.748;19.142;2022-08-03T13:53:22;51.70;46.68;62.57;;
72805;Laerm;60920;48.748;19.142;2022-08-03T13:55:47;51.92;46.01;65.18;;
72805;Laerm;60920;48.748;19.142;2022-08-03T13:58:12;53.15;45.64;69.12;;
72805;Laerm;60920;48.748;19.142;2022-08-03T14:00:38;51.24;46.68;57.47;;
72805;Laerm;60920;48.748;19.142;2022-08-03T14:03:04;51.77;47.59;55.93;;
72805;Laerm;60920;48.748;19.142;2022-08-03T14:05:29;52.42;46.45;60.26;;
72805;Laerm;60920;48.748;19.142;2022-08-03T14:07:56;52.59;47.24;64.04;;
72805;Laerm;60920;48.748;19.142;2022-08-03T14:10:21;52.65;46.32;64.22;;